createdAt,value
2017-09-22T00:01:07.692Z,72.20
2017-09-22T00:03:35.251Z,72.20
2017-09-22T00:06:02.725Z,72.20
2017-09-22T00:08:30.194Z,72.40
2017-09-22T00:10:57.674Z,72.40
2017-09-22T00:13:25.178Z,72.50
2017-09-22T00:15:52.655Z,72.50
2017-09-22T00:18:20.113Z,72.50
2017-09-22T00:20:47.586Z,72.50
2017-09-22T00:23:15.065Z,72.60
2017-09-22T00:25:42.524Z,72.40
2017-09-22T00:28:10.760Z,72.70
2017-09-22T00:30:38.229Z,72.60
2017-09-22T00:33:05.697Z,73.60
2017-09-22T00:35:33.198Z,72.90
2017-09-22T00:38:00.676Z,72.90
2017-09-22T00:40:28.133Z,73.00
2017-09-22T00:42:55.601Z,73.00
2017-09-22T00:45:23.064Z,73.00
2017-09-22T00:47:50.537Z,73.20
2017-09-22T00:50:18.011Z,73.40
2017-09-22T00:52:46.250Z,73.70
2017-09-22T00:55:13.713Z,73.70
2017-09-22T00:57:41.201Z,73.80
2017-09-22T01:00:09.512Z,73.70
2017-09-22T01:02:36.978Z,73.70
2017-09-22T01:05:04.443Z,73.80
2017-09-22T01:07:31.922Z,73.80
2017-09-22T01:09:59.440Z,73.90
2017-09-22T01:12:26.905Z,73.80
2017-09-22T01:14:54.372Z,73.90
2017-09-22T01:17:21.836Z,74.10
2017-09-22T01:19:49.292Z,74.10
2017-09-22T01:22:16.777Z,74.00
2017-09-22T01:24:44.240Z,74.10
2017-09-22T01:27:12.557Z,74.70
2017-09-22T01:29:40.012Z,74.60
2017-09-22T01:32:07.484Z,74.70
2017-09-22T01:34:34.954Z,74.90
2017-09-22T01:37:02.422Z,74.70
2017-09-22T01:39:29.885Z,74.80
2017-09-22T01:41:57.356Z,74.90
2017-09-22T01:44:25.582Z,75.20
2017-09-22T01:46:53.047Z,75.20
2017-09-22T01:49:20.513Z,75.20
2017-09-22T01:51:47.995Z,75.10
2017-09-22T01:54:15.463Z,75.00
2017-09-22T01:56:43.712Z,75.10
2017-09-22T01:59:11.180Z,75.00
2017-09-22T02:01:38.648Z,75.40
2017-09-22T02:04:06.884Z,75.30
2017-09-22T02:06:34.357Z,75.10
2017-09-22T02:09:01.886Z,75.40
2017-09-22T02:11:29.345Z,75.50
2017-09-22T02:13:56.817Z,75.50
2017-09-22T02:16:24.347Z,75.70
2017-09-22T02:18:51.814Z,75.60
2017-09-22T02:21:19.291Z,75.60
2017-09-22T02:23:46.779Z,75.40
2017-09-22T02:26:15.005Z,75.50
2017-09-22T02:28:42.482Z,75.40
2017-09-22T02:31:09.956Z,75.50
2017-09-22T02:33:37.459Z,75.30
2017-09-22T02:36:05.022Z,75.10
2017-09-22T02:38:32.484Z,75.50
2017-09-22T02:41:00.037Z,75.50
2017-09-22T02:43:27.504Z,75.40
2017-09-22T02:45:54.972Z,75.40
2017-09-22T02:48:22.432Z,75.60
2017-09-22T02:50:49.905Z,75.80
2017-09-22T02:53:17.421Z,76.10
2017-09-22T02:55:44.886Z,76.30
2017-09-22T02:58:12.352Z,76.30
2017-09-22T03:00:39.816Z,76.30
2017-09-22T03:03:07.281Z,76.00
2017-09-22T03:05:34.751Z,75.90
2017-09-22T03:08:02.264Z,75.90
2017-09-22T03:10:29.735Z,75.80
2017-09-22T03:12:57.197Z,75.50
2017-09-22T03:15:24.665Z,75.40
2017-09-22T03:17:52.133Z,75.60
2017-09-22T03:20:19.650Z,75.70
2017-09-22T03:22:47.217Z,75.70
2017-09-22T03:25:14.711Z,75.50
2017-09-22T03:27:42.164Z,75.50
2017-09-22T03:30:09.633Z,75.50
2017-09-22T03:32:37.868Z,75.70
2017-09-22T03:35:05.329Z,75.60
2017-09-22T03:37:32.864Z,75.80
2017-09-22T03:40:00.341Z,75.90
2017-09-22T03:42:27.800Z,76.50
2017-09-22T03:44:55.257Z,76.70
2017-09-22T03:47:22.739Z,76.80
2017-09-22T03:49:50.201Z,76.70
2017-09-22T03:52:17.681Z,76.70
2017-09-22T03:54:45.167Z,76.80
2017-09-22T03:57:12.652Z,76.60
2017-09-22T03:59:40.137Z,76.70
2017-09-22T04:02:08.395Z,76.50
2017-09-22T04:04:35.866Z,76.30
2017-09-22T04:07:03.340Z,76.40
2017-09-22T04:09:31.598Z,76.10
2017-09-22T04:11:59.065Z,76.10
2017-09-22T04:14:27.298Z,75.90
2017-09-22T04:16:54.769Z,75.90
2017-09-22T04:19:22.245Z,76.10
2017-09-22T04:21:50.473Z,76.10
2017-09-22T04:24:17.951Z,76.00
2017-09-22T04:26:45.438Z,76.20
2017-09-22T04:29:13.678Z,76.10
2017-09-22T04:31:41.158Z,76.00
2017-09-22T04:34:08.621Z,76.10
2017-09-22T04:36:36.849Z,76.30
2017-09-22T04:39:04.322Z,76.30
2017-09-22T04:41:31.800Z,76.50
2017-09-22T04:43:59.283Z,76.70
2017-09-22T04:46:27.500Z,76.90
2017-09-22T04:48:54.978Z,77.30
2017-09-22T04:51:22.454Z,77.00
2017-09-22T04:53:50.696Z,77.30
2017-09-22T04:56:18.152Z,77.30
2017-09-22T04:58:45.625Z,77.10
2017-09-22T05:01:13.143Z,77.00
2017-09-22T05:03:40.606Z,76.90
2017-09-22T05:06:08.098Z,76.80
2017-09-22T05:08:35.569Z,76.80
2017-09-22T05:11:03.810Z,76.80
2017-09-22T05:13:31.268Z,76.70
2017-09-22T05:15:58.749Z,76.70
2017-09-22T05:18:26.235Z,76.60
2017-09-22T05:20:53.700Z,77.60
2017-09-22T05:23:21.156Z,76.50
2017-09-22T05:25:48.678Z,76.60
2017-09-22T05:28:16.278Z,77.30
2017-09-22T05:30:43.765Z,76.60
2017-09-22T05:33:11.237Z,76.70
2017-09-22T05:35:38.848Z,76.80
2017-09-22T05:38:06.365Z,76.70
2017-09-22T05:40:33.844Z,76.50
2017-09-22T05:43:02.060Z,76.40
2017-09-22T05:45:29.534Z,76.20
2017-09-22T05:47:57.013Z,76.00
2017-09-22T05:50:24.493Z,75.80
2017-09-22T05:52:52.743Z,75.80
2017-09-22T05:55:20.211Z,75.70
2017-09-22T05:57:48.530Z,75.90
2017-09-22T06:00:16.042Z,75.50
2017-09-22T06:02:43.512Z,75.70
2017-09-22T06:05:11.751Z,75.30
2017-09-22T06:07:39.227Z,75.30
2017-09-22T06:10:06.774Z,75.50
2017-09-22T06:12:34.356Z,75.60
2017-09-22T06:15:02.623Z,74.70
2017-09-22T06:17:30.925Z,74.20
2017-09-22T06:19:58.444Z,74.10
2017-09-22T06:22:26.003Z,73.90
2017-09-22T06:24:53.473Z,73.40
2017-09-22T06:27:21.042Z,71.80
2017-09-22T06:29:49.278Z,72.80
2017-09-22T06:32:16.750Z,72.60
2017-09-22T06:34:44.322Z,72.20
2017-09-22T06:37:11.786Z,71.00
2017-09-22T06:39:40.040Z,70.20
2017-09-22T06:42:07.502Z,70.20
2017-09-22T06:44:34.990Z,69.60
2017-09-22T06:47:03.223Z,68.80
2017-09-22T06:49:30.700Z,68.80
2017-09-22T06:51:58.945Z,68.00
2017-09-22T06:54:26.436Z,67.90
2017-09-22T06:56:54.677Z,67.40
2017-09-22T06:59:22.132Z,67.30
2017-09-22T07:01:49.596Z,67.80
2017-09-22T07:04:17.065Z,67.20
2017-09-22T07:06:44.523Z,67.40
2017-09-22T07:09:11.998Z,67.30
2017-09-22T07:11:40.223Z,67.80
2017-09-22T07:14:07.702Z,67.60
2017-09-22T07:16:35.171Z,66.50
2017-09-22T07:19:02.645Z,67.10
2017-09-22T07:21:30.876Z,67.20
2017-09-22T07:23:58.353Z,67.00
2017-09-22T07:26:25.832Z,67.10
2017-09-22T07:28:54.088Z,65.10
2017-09-22T07:31:21.545Z,65.00
2017-09-22T07:33:49.096Z,64.60
2017-09-22T07:36:16.577Z,64.10
2017-09-22T07:38:44.855Z,63.30
2017-09-22T07:41:13.096Z,63.60
2017-09-22T07:43:40.676Z,63.40
2017-09-22T07:46:08.133Z,62.70
2017-09-22T07:48:35.683Z,62.80
2017-09-22T07:51:03.251Z,61.90
2017-09-22T07:53:32.249Z,61.10
2017-09-22T07:56:00.610Z,61.40
2017-09-22T07:58:28.080Z,61.40
2017-09-22T08:00:55.652Z,61.30
2017-09-22T08:03:23.885Z,61.70
2017-09-22T08:05:51.470Z,61.70
2017-09-22T08:08:19.881Z,60.60
2017-09-22T08:10:47.454Z,61.10
2017-09-22T08:13:15.014Z,60.60
2017-09-22T08:15:42.481Z,59.70
2017-09-22T08:18:09.949Z,59.00
2017-09-22T08:20:37.404Z,57.70
2017-09-22T08:23:04.867Z,56.50
2017-09-22T08:25:32.445Z,57.20
2017-09-22T08:28:01.605Z,56.50
2017-09-22T08:30:29.919Z,55.70
2017-09-22T08:32:57.413Z,55.60
2017-09-22T08:35:24.905Z,55.60
2017-09-22T08:37:52.390Z,55.90
2017-09-22T08:40:20.732Z,56.10
2017-09-22T08:42:49.742Z,55.60
2017-09-22T08:45:17.617Z,55.60
2017-09-22T08:47:45.086Z,55.10
2017-09-22T08:50:12.600Z,55.50
2017-09-22T08:52:40.089Z,54.60
2017-09-22T08:55:07.627Z,55.00
2017-09-22T08:57:35.098Z,56.40
2017-09-22T09:00:02.574Z,54.90
2017-09-22T09:02:30.037Z,54.60
2017-09-22T09:04:57.500Z,54.20
2017-09-22T09:07:25.758Z,55.90
2017-09-22T09:09:54.047Z,55.20
2017-09-22T09:12:21.580Z,55.50
2017-09-22T09:14:49.052Z,55.10
2017-09-22T09:17:17.313Z,54.20
2017-09-22T09:19:44.773Z,54.80
2017-09-22T09:22:12.247Z,54.90
2017-09-22T09:24:39.797Z,55.70
2017-09-22T09:27:08.758Z,55.20
2017-09-22T09:29:36.238Z,55.20
2017-09-22T09:32:03.703Z,54.60
2017-09-22T09:34:31.969Z,52.90
2017-09-22T09:36:59.420Z,52.90
2017-09-22T09:39:27.002Z,53.80
2017-09-22T09:41:54.456Z,53.70
2017-09-22T09:44:21.928Z,51.90
2017-09-22T09:46:50.143Z,53.50
2017-09-22T09:49:17.614Z,53.40
2017-09-22T09:51:45.084Z,54.00
2017-09-22T09:54:12.557Z,53.80
2017-09-22T09:56:40.101Z,52.90
2017-09-22T09:59:07.565Z,53.80
2017-09-22T10:01:35.017Z,53.60
2017-09-22T10:04:02.473Z,55.00
2017-09-22T10:06:30.752Z,52.60
2017-09-22T10:08:58.235Z,52.60
2017-09-22T10:11:26.452Z,51.80
2017-09-22T10:13:53.966Z,51.70
2017-09-22T10:16:22.199Z,51.30
2017-09-22T10:18:49.726Z,51.30
2017-09-22T10:21:17.230Z,51.50
2017-09-22T10:23:44.794Z,52.90
2017-09-22T10:26:12.274Z,50.50
2017-09-22T10:28:40.517Z,51.20
2017-09-22T10:31:08.026Z,51.10
2017-09-22T10:33:35.498Z,52.10
2017-09-22T10:36:02.958Z,49.10
2017-09-22T10:38:30.420Z,49.60
2017-09-22T10:40:57.881Z,50.80
2017-09-22T10:43:25.420Z,49.80
2017-09-22T10:45:52.939Z,49.60
2017-09-22T10:48:21.174Z,49.80
2017-09-22T10:50:48.637Z,49.70
2017-09-22T10:53:16.100Z,50.80
2017-09-22T10:55:43.717Z,51.30
2017-09-22T10:58:11.221Z,52.20
2017-09-22T11:00:38.876Z,52.10
2017-09-22T11:03:06.341Z,51.80
2017-09-22T11:05:33.825Z,52.40
2017-09-22T11:08:02.065Z,48.70
2017-09-22T11:10:29.633Z,48.60
2017-09-22T11:12:57.104Z,48.70
2017-09-22T11:15:24.563Z,48.50
2017-09-22T11:17:52.026Z,48.40
2017-09-22T11:20:20.277Z,46.70
2017-09-22T11:22:48.272Z,46.50
2017-09-22T11:25:16.526Z,42.90
2017-09-22T11:27:43.990Z,42.80
2017-09-22T11:30:11.595Z,41.20
2017-09-22T11:32:39.063Z,41.30
2017-09-22T11:35:08.145Z,43.20
2017-09-22T11:37:35.607Z,43.10
2017-09-22T11:40:03.074Z,45.10
2017-09-22T11:42:30.617Z,44.20
2017-09-22T11:44:58.074Z,44.00
2017-09-22T11:47:25.538Z,44.70
2017-09-22T11:49:53.001Z,44.80
2017-09-22T11:52:20.457Z,41.60
2017-09-22T11:54:47.924Z,41.70
2017-09-22T11:57:15.393Z,43.30
2017-09-22T11:59:42.913Z,43.80
2017-09-22T12:02:10.378Z,43.40
2017-09-22T12:04:37.835Z,43.20
2017-09-22T12:07:05.289Z,43.80
2017-09-22T12:09:32.749Z,43.20
2017-09-22T12:12:00.209Z,44.40
2017-09-22T12:14:27.674Z,45.40
2017-09-22T12:16:55.132Z,45.20
2017-09-22T12:19:22.598Z,45.80
2017-09-22T12:21:50.079Z,46.40
2017-09-22T12:24:17.634Z,47.70
2017-09-22T12:26:45.106Z,45.50
2017-09-22T12:29:13.360Z,47.30
2017-09-22T12:31:40.921Z,47.20
2017-09-22T12:34:08.377Z,48.20
2017-09-22T12:36:35.846Z,47.40
2017-09-22T12:39:03.326Z,48.20
2017-09-22T12:41:30.787Z,48.00
2017-09-22T12:43:58.234Z,48.20
2017-09-22T12:46:25.714Z,49.10
2017-09-22T12:48:53.205Z,49.00
2017-09-22T12:51:20.670Z,49.30
2017-09-22T12:53:48.128Z,48.10
2017-09-22T12:56:15.778Z,48.50
2017-09-22T12:58:43.229Z,49.10
2017-09-22T13:01:10.695Z,48.80
2017-09-22T13:03:38.141Z,49.00
2017-09-22T13:06:05.604Z,48.40
2017-09-22T13:08:33.075Z,48.00
2017-09-22T13:11:00.553Z,47.80
2017-09-22T13:13:28.782Z,48.30
2017-09-22T13:15:56.256Z,48.20
2017-09-22T13:18:23.719Z,47.00
2017-09-22T13:20:51.329Z,48.10
2017-09-22T13:23:18.855Z,47.70
2017-09-22T13:25:47.081Z,47.40
2017-09-22T13:28:14.568Z,47.50
2017-09-22T13:30:42.025Z,47.40
2017-09-22T13:33:09.505Z,48.30
2017-09-22T13:35:37.735Z,48.20
2017-09-22T13:38:05.201Z,48.70
2017-09-22T13:40:34.166Z,47.10
2017-09-22T13:43:01.640Z,47.10
2017-09-22T13:45:29.101Z,47.50
2017-09-22T13:47:56.574Z,48.10
2017-09-22T13:50:24.851Z,48.10
2017-09-22T13:52:52.451Z,47.50
2017-09-22T13:55:19.913Z,47.50
2017-09-22T13:57:47.377Z,46.90
2017-09-22T14:00:14.832Z,44.90
2017-09-22T14:02:42.345Z,46.20
2017-09-22T14:05:09.850Z,46.70
2017-09-22T14:07:37.321Z,45.10
2017-09-22T14:10:04.773Z,44.40
2017-09-22T14:12:32.364Z,43.90
2017-09-22T14:14:59.833Z,44.30
2017-09-22T14:17:28.094Z,43.10
2017-09-22T14:19:55.562Z,43.00
2017-09-22T14:22:23.020Z,43.20
2017-09-22T14:24:51.341Z,43.40
2017-09-22T14:27:18.840Z,43.00
2017-09-22T14:29:46.309Z,42.40
2017-09-22T14:32:13.773Z,41.40
2017-09-22T14:34:42.005Z,40.80
2017-09-22T14:37:09.466Z,40.70
2017-09-22T14:39:36.937Z,39.10
2017-09-22T14:42:04.394Z,38.70
2017-09-22T14:44:31.877Z,37.80
2017-09-22T14:47:00.115Z,39.60
2017-09-22T14:49:27.594Z,39.50
2017-09-22T14:51:55.074Z,38.20
2017-09-22T14:54:22.603Z,38.80
2017-09-22T14:56:50.178Z,37.20
2017-09-22T14:59:17.657Z,35.60
2017-09-22T15:01:45.194Z,35.60
2017-09-22T15:04:13.452Z,33.90
2017-09-22T15:06:40.937Z,33.70
2017-09-22T15:09:09.200Z,32.70
2017-09-22T15:11:37.457Z,32.70
2017-09-22T15:14:04.929Z,32.40
2017-09-22T15:16:32.396Z,32.10
2017-09-22T15:19:00.634Z,31.00
2017-09-22T15:21:28.206Z,30.90
2017-09-22T15:23:55.667Z,31.10
2017-09-22T15:26:23.137Z,29.90
2017-09-22T15:28:51.453Z,29.90
2017-09-22T15:31:18.918Z,29.80
2017-09-22T15:33:46.382Z,30.20
2017-09-22T15:36:13.857Z,29.30
2017-09-22T15:38:41.313Z,29.70
2017-09-22T15:41:08.806Z,30.40
2017-09-22T15:43:37.035Z,29.00
2017-09-22T15:46:04.489Z,29.00
2017-09-22T15:48:31.963Z,30.00
2017-09-22T15:50:59.422Z,30.20
2017-09-22T15:53:26.880Z,29.20
2017-09-22T15:55:54.337Z,28.40
2017-09-22T15:58:21.825Z,30.00
2017-09-22T16:00:50.056Z,30.80
2017-09-22T16:03:17.531Z,30.70
2017-09-22T16:05:44.983Z,31.10
2017-09-22T16:08:12.454Z,29.40
2017-09-22T16:10:40.682Z,29.80
2017-09-22T16:13:08.136Z,29.50
2017-09-22T16:15:35.639Z,30.60
2017-09-22T16:18:03.094Z,31.10
2017-09-22T16:20:30.549Z,30.20
2017-09-22T16:22:58.017Z,30.90
2017-09-22T16:25:26.247Z,32.60
2017-09-22T16:27:53.710Z,32.50
2017-09-22T16:30:21.183Z,32.70
2017-09-22T16:32:49.322Z,34.00
2017-09-22T16:35:16.780Z,35.70
2017-09-22T16:37:44.259Z,37.00
2017-09-22T16:40:12.302Z,38.70
2017-09-22T16:42:39.774Z,40.00
2017-09-22T16:45:07.246Z,42.00
2017-09-22T16:47:34.729Z,43.20
2017-09-22T16:50:02.960Z,45.10
2017-09-22T16:52:30.417Z,45.00
2017-09-22T16:54:57.901Z,45.90
2017-09-22T16:57:25.359Z,46.30
2017-09-22T16:59:52.829Z,46.40
2017-09-22T17:02:21.062Z,47.20
2017-09-22T17:04:48.519Z,47.10
2017-09-22T17:07:15.984Z,48.30
2017-09-22T17:09:43.454Z,48.80
2017-09-22T17:12:10.914Z,49.00
2017-09-22T17:14:38.383Z,50.20
2017-09-22T17:17:05.840Z,50.10
2017-09-22T17:19:33.340Z,49.70
2017-09-22T17:22:00.794Z,50.30
2017-09-22T17:24:28.258Z,50.70
2017-09-22T17:26:55.715Z,51.10
2017-09-22T17:29:23.178Z,51.50
2017-09-22T17:31:50.646Z,52.00
2017-09-22T17:34:18.126Z,52.20
2017-09-22T17:36:45.581Z,52.20
2017-09-22T17:39:13.041Z,52.70
2017-09-22T17:41:40.497Z,52.70
2017-09-22T17:44:07.958Z,52.90
2017-09-22T17:46:35.424Z,53.40
2017-09-22T17:49:03.648Z,53.90
2017-09-22T17:51:31.115Z,53.90
2017-09-22T17:53:58.574Z,54.20
2017-09-22T17:56:26.806Z,54.70
2017-09-22T17:58:54.263Z,54.70
2017-09-22T18:01:21.717Z,55.10
2017-09-22T18:03:49.173Z,55.40
2017-09-22T18:06:16.695Z,55.50
2017-09-22T18:08:44.971Z,56.40
2017-09-22T18:11:13.193Z,56.40
2017-09-22T18:13:40.649Z,56.30
2017-09-22T18:16:08.131Z,56.60
2017-09-22T18:18:35.588Z,56.70
2017-09-22T18:21:03.129Z,56.40
2017-09-22T18:23:30.601Z,56.50
2017-09-22T18:25:58.094Z,56.50
2017-09-22T18:28:25.549Z,56.50
2017-09-22T18:30:54.521Z,57.20
2017-09-22T18:33:21.986Z,57.20
2017-09-22T18:35:49.546Z,57.20
2017-09-22T18:38:17.108Z,57.30
2017-09-22T18:40:44.613Z,57.60
2017-09-22T18:43:12.078Z,57.50
2017-09-22T18:45:39.559Z,57.90
2017-09-22T18:48:07.146Z,57.90
2017-09-22T18:50:34.605Z,58.00
2017-09-22T18:53:02.845Z,58.20
2017-09-22T18:55:30.468Z,58.10
2017-09-22T18:57:58.161Z,58.50
2017-09-22T19:00:25.634Z,58.30
2017-09-22T19:02:53.107Z,58.60
2017-09-22T19:05:20.622Z,58.50
2017-09-22T19:07:48.093Z,58.60
2017-09-22T19:10:15.566Z,58.70
2017-09-22T19:12:43.130Z,58.60
2017-09-22T19:15:10.618Z,58.40
2017-09-22T19:17:38.852Z,58.90
2017-09-22T19:20:06.481Z,58.80
2017-09-22T19:22:33.940Z,58.80
2017-09-22T19:25:01.442Z,58.90
2017-09-22T19:27:29.055Z,59.00
2017-09-22T19:29:56.542Z,59.20
2017-09-22T19:32:24.018Z,59.60
2017-09-22T19:34:51.542Z,59.40
2017-09-22T19:37:19.273Z,59.70
2017-09-22T19:39:46.787Z,59.80
2017-09-22T19:42:14.262Z,60.40
2017-09-22T19:44:41.792Z,59.80
2017-09-22T19:47:09.276Z,60.50
2017-09-22T19:49:36.740Z,60.60
2017-09-22T19:52:04.974Z,60.90
2017-09-22T19:54:32.445Z,60.80
2017-09-22T19:56:59.970Z,60.70
2017-09-22T19:59:27.533Z,61.30
2017-09-22T20:01:55.002Z,61.30
2017-09-22T20:04:22.511Z,61.40
2017-09-22T20:06:50.178Z,61.30
2017-09-22T20:09:17.649Z,61.30
2017-09-22T20:11:45.122Z,61.50
2017-09-22T20:14:12.785Z,62.00
2017-09-22T20:16:40.436Z,62.10
2017-09-22T20:19:08.062Z,62.30
2017-09-22T20:21:36.514Z,62.50
2017-09-22T20:24:03.988Z,62.50
2017-09-22T20:26:32.220Z,62.30
2017-09-22T20:28:59.688Z,62.20
2017-09-22T20:31:27.178Z,62.30
2017-09-22T20:33:55.449Z,63.00
2017-09-22T20:36:23.758Z,62.90
2017-09-22T20:38:51.989Z,63.00
2017-09-22T20:41:19.457Z,63.00
2017-09-22T20:43:46.945Z,62.80
2017-09-22T20:46:14.572Z,62.60
2017-09-22T20:48:42.110Z,63.20
2017-09-22T20:51:09.595Z,63.30
2017-09-22T20:53:37.058Z,63.60
2017-09-22T20:56:05.304Z,63.90
2017-09-22T20:58:32.766Z,63.80
2017-09-22T21:01:00.325Z,64.20
2017-09-22T21:03:27.786Z,64.20
2017-09-22T21:05:55.244Z,64.00
2017-09-22T21:08:22.908Z,64.00
2017-09-22T21:10:50.447Z,63.90
2017-09-22T21:13:17.938Z,63.80
2017-09-22T21:15:46.170Z,64.20
2017-09-22T21:18:13.640Z,64.10
2017-09-22T21:20:41.108Z,64.30
2017-09-22T21:23:08.573Z,64.50
2017-09-22T21:25:36.810Z,64.30
2017-09-22T21:28:04.274Z,64.20
2017-09-22T21:30:32.518Z,64.70
2017-09-22T21:33:00.000Z,64.80
2017-09-22T21:35:27.466Z,64.50
2017-09-22T21:37:54.937Z,64.70
2017-09-22T21:40:22.392Z,64.40
2017-09-22T21:42:49.907Z,64.60
2017-09-22T21:45:17.361Z,64.80
2017-09-22T21:47:44.820Z,65.30
2017-09-22T21:50:12.289Z,64.50
2017-09-22T21:52:39.766Z,64.80
2017-09-22T21:55:08.021Z,65.10
2017-09-22T21:57:36.301Z,65.10
2017-09-22T22:00:05.268Z,65.00
2017-09-22T22:02:38.613Z,65.00
2017-09-22T22:05:11.654Z,65.10
2017-09-22T22:07:39.120Z,65.20
2017-09-22T22:10:06.594Z,65.40
2017-09-22T22:12:34.060Z,65.40
2017-09-22T22:15:01.647Z,65.30
2017-09-22T22:17:29.884Z,65.80
2017-09-22T22:19:57.728Z,65.60
2017-09-22T22:22:25.285Z,66.20
2017-09-22T22:24:52.790Z,66.30
2017-09-22T22:27:20.248Z,66.20
2017-09-22T22:29:47.709Z,66.00
2017-09-22T22:32:15.190Z,66.00
2017-09-22T22:34:43.442Z,65.90
2017-09-22T22:37:10.914Z,66.00
2017-09-22T22:39:39.150Z,67.70
2017-09-22T22:42:06.621Z,66.80
2017-09-22T22:44:34.090Z,66.70
2017-09-22T22:47:02.327Z,66.30
2017-09-22T22:49:29.793Z,66.30
2017-09-22T22:51:57.283Z,66.50
2017-09-22T22:54:25.515Z,66.20
2017-09-22T22:56:52.975Z,66.10
2017-09-22T22:59:20.455Z,66.40
2017-09-22T23:01:47.909Z,65.90
2017-09-22T23:04:15.385Z,66.10
2017-09-22T23:06:43.628Z,66.40
2017-09-22T23:09:11.101Z,66.40
2017-09-22T23:11:38.586Z,66.60
2017-09-22T23:14:06.057Z,66.60
2017-09-22T23:16:33.538Z,66.90
2017-09-22T23:19:01.003Z,67.00
2017-09-22T23:21:28.500Z,66.70
2017-09-22T23:23:56.736Z,66.30
2017-09-22T23:26:24.207Z,66.30
2017-09-22T23:28:51.680Z,66.40
2017-09-22T23:31:19.137Z,66.70
2017-09-22T23:33:46.646Z,67.40
2017-09-22T23:36:14.121Z,67.20
2017-09-22T23:38:41.609Z,67.10
2017-09-22T23:41:09.072Z,67.20
2017-09-22T23:43:36.530Z,68.10
2017-09-22T23:46:04.761Z,66.70
2017-09-22T23:48:32.234Z,66.70
2017-09-22T23:50:59.709Z,67.20
2017-09-22T23:53:27.175Z,67.10
2017-09-22T23:55:55.418Z,67.50
2017-09-22T23:58:22.906Z,67.50
